ESSL Airport Information

Runway Information
Runway 11 Length 6989 ft width 131 ft
Elevation 142 ft Threshold 0 ft Heading 112
Runway 29 Length 6989 ft Width 131 ft
Elevation 172 ft Threshold 0 ft Heading 292
Airport Frequencies
Type TWR Name TWR Frequency 118.8 MHZ
Airport Navaids
Airport Weather Information & NOTAM
ADDS - METARS form results

(0317 UTC 23 January 2022)
Data provider http://aviationweather.gov/metar/data/
 
METAR text: ESSL 230250Z AUTO 28007KT 9999 OVC003/// 01/00 Q1024
Conditions at: ESSL (LINKOPING/SAAB , SE) observed 0250 UTC 23 January 2022
Temperature: 1.0°C (34°F)
Dewpoint: 0.0°C (32°F) [RH = 93%]
Pressure (altimeter): 30.24 inches Hg (1024.0 mb)
Winds: from the W (280 degrees) at 8 MPH (7 knots; 3.6 m/s)
Visibility: 6 or more miles (10+ km)
Ceiling: 300 feet AGL
Clouds: overcast cloud deck at 300 feet AGL
Weather: no significant weather observed at this time

METAR text: ESSL 230220Z AUTO 28009KT 9999 OVC003/// 01/00 Q1024
Conditions at: ESSL (LINKOPING/SAAB , SE) observed 0220 UTC 23 January 2022
Temperature: 1.0°C (34°F)
Dewpoint: 0.0°C (32°F) [RH = 93%]
Pressure (altimeter): 30.24 inches Hg (1024.0 mb)
Winds: from the W (280 degrees) at 10 MPH (9 knots; 4.6 m/s)
Visibility: 6 or more miles (10+ km)
Ceiling: 300 feet AGL
Clouds: overcast cloud deck at 300 feet AGL
Weather: no significant weather observed at this time